メインページ
METAR-TAF:

METAR-TAF

空港 :

ダブリン空港

ダブリン, アイルランド

緯度: 53-26N, 経度: 006-15W, 海抜: 68m

現時点の気象観測

当レポートは28分前の04:30(UTC)に作成
南東の風 8kt、から南/南東の間で変化する
気温 8°C
湿度 93%
気圧 1005 hPa
視程10km以上
1,500メートル以下は雲なし、積乱雲なし

METAR: EIDW 220430Z 14008KT 100V160 CAVOK 08/07 Q1005 NOSIG

時間: 05:58 (04:58 UTC)

予報

当レポートは5時間58分前の23:00(UTC)に作成
予報は22日の 00時(UTC)から 22日の 24時(UTC)まで有効
南東の風 7kt
視程10km以上
1,500メートル以下は雲なし、積乱雲なし
確率 30% :
22日の 02時(UTC)から 22日の 08時(UTC)まで一時的に
視程: 0400m
高度100ftの千切れ雲あり
22日の 08時(UTC)から 22日の 10時(UTC)まで徐々に
南東の風 13kt
22日の 17時(UTC)から 22日の 19時(UTC)まで徐々に
変向風 3kt

TAF: EIDW 212300Z 2200/2224 14007KT CAVOK PROB30 TEMPO 2202/2208 0400 FG BKN001 BECMG 2208/2210 14013KT BECMG 2217/2219 VRB03KT

4,000以上の空港の気象観測と天気予報(METAR報とTAF報)

利用可能な観測所は地図上に黄色い丸と赤い丸で示す。

丸の上にカーソルを重ねると観測所名を参照できる。

次にクリックすると気象観測と天気予報を参照できる。

マップの切り替え:黒色「×」印の緑ボタンをクリックして拡大、「-」印の緑ボタンをクリックして縮小、緑色の三角印をクリックして隣りの地図に切り替え


METAR-TAF: